Terminal Aerodrome Forecast
Issued by NWS Wakefield, VA

Home | Current Version | Previous Version | Text Only | Print | Product List | Glossary On
Versions: 1 2 3 4 5 6 7 8 9 10 11 12
000
FTUS41 KAKQ 131123
TAFRIC
TAF
KRIC 131123Z 1312/1412 31007KT P6SM FEW070
     FM131400 28011G20KT P6SM FEW250
     FM132000 25009KT P6SM SCT250
     FM132300 21007KT P6SM BKN150=

USA.gov is the U.S. government's official web portal to all federal, state and local government web resources and services.